Main page
METAR-TAF:

METAR-TAF

Airports :

Kerman, Iran

Kerman Airport

latitude: 30-15N, longitude: 056-58E, elevation: 1748 m

Current weather observation

The report was made 1 hour and 15 minutes ago, at 22:00 UTC
Wind 6 kt from the Southeast
Temperature 17°C
Humidity 11%
Pressure 1019 hPa
Visibility 10 km or more
no clouds below 1500 m and no cumulonimbus

METAR: OIKK 232200Z 14006KT CAVOK 17/M14 Q1018 A3008

Time: 03:45 (23:15 UTC)

Forecast

The report was made 5 hours and 45 minutes ago, at 17:30 UTC
Forecast valid from 23 at 18 UTC to 24 at 24 UTC
Wind 10 kt from the Northeast
Visibility 10 km or more
no clouds below 1500 m and no cumulonimbus
Temporary
from 24 at 14 UTC to 24 at 18 UTC
Wind 14 kt from the North/Northwest

TAF: OIKK 231730Z 2318/2424 04005MPS CAVOK TEMPO 2414/2418 34007MPS

Weather observations and forecasts of more than 4000 airports (METAR and TAF reports).

The available stations are represented by yellow and red dots on the map.

Hover mouse over dot to see the name of the station.

Then click to see weather observations and forecasts.

To change the map : click on the green buttons with a black cross to zoom in, on the green button with a dash to zoom out, or on the green arrows for adjacent maps.


METAR-TAF: